sensor_id;sensor_type;location;lat;lon;timestamp;P1;durP1;ratioP1;P2;durP2;ratioP2
32746;SDS011;19118;50.860;13.662;2022-07-21T00:01:43;12.52;;;2.20;;
32746;SDS011;19118;50.860;13.662;2022-07-21T00:06:44;16.07;;;1.77;;
32746;SDS011;19118;50.860;13.662;2022-07-21T00:11:47;8.85;;;2.28;;
32746;SDS011;19118;50.860;13.662;2022-07-21T00:16:47;15.93;;;1.83;;
32746;SDS011;19118;50.860;13.662;2022-07-21T00:21:48;7.97;;;2.10;;
32746;SDS011;19118;50.860;13.662;2022-07-21T00:26:48;12.40;;;1.97;;
32746;SDS011;19118;50.860;13.662;2022-07-21T00:31:49;14.80;;;1.50;;
32746;SDS011;19118;50.860;13.662;2022-07-21T00:36:49;8.90;;;1.70;;
32746;SDS011;19118;50.860;13.662;2022-07-21T00:41:49;12.80;;;2.17;;
32746;SDS011;19118;50.860;13.662;2022-07-21T00:46:50;10.97;;;1.90;;
32746;SDS011;19118;50.860;13.662;2022-07-21T00:51:51;12.15;;;2.45;;
32746;SDS011;19118;50.860;13.662;2022-07-21T00:56:51;4.82;;;1.52;;
32746;SDS011;19118;50.860;13.662;2022-07-21T01:01:52;5.20;;;1.60;;
32746;SDS011;19118;50.860;13.662;2022-07-21T01:06:53;9.05;;;2.30;;
32746;SDS011;19118;50.860;13.662;2022-07-21T01:11:54;12.10;;;1.65;;
32746;SDS011;19118;50.860;13.662;2022-07-21T01:16:55;11.80;;;1.80;;
32746;SDS011;19118;50.860;13.662;2022-07-21T01:21:55;9.23;;;2.25;;
32746;SDS011;19118;50.860;13.662;2022-07-21T01:26:56;15.20;;;2.17;;
32746;SDS011;19118;50.860;13.662;2022-07-21T01:31:56;5.00;;;1.65;;
32746;SDS011;19118;50.860;13.662;2022-07-21T01:36:56;10.02;;;1.85;;
32746;SDS011;19118;50.860;13.662;2022-07-21T01:41:57;5.37;;;2.13;;
32746;SDS011;19118;50.860;13.662;2022-07-21T01:46:58;11.43;;;2.25;;
32746;SDS011;19118;50.860;13.662;2022-07-21T01:51:58;11.63;;;2.10;;
32746;SDS011;19118;50.860;13.662;2022-07-21T01:57:00;9.65;;;2.05;;
32746;SDS011;19118;50.860;13.662;2022-07-21T02:02:00;7.35;;;2.00;;
32746;SDS011;19118;50.860;13.662;2022-07-21T02:07:01;6.70;;;1.90;;
32746;SDS011;19118;50.860;13.662;2022-07-21T02:12:02;4.22;;;1.88;;
32746;SDS011;19118;50.860;13.662;2022-07-21T02:17:03;11.05;;;2.08;;
32746;SDS011;19118;50.860;13.662;2022-07-21T02:22:03;10.23;;;2.20;;
32746;SDS011;19118;50.860;13.662;2022-07-21T02:27:04;8.17;;;2.83;;
32746;SDS011;19118;50.860;13.662;2022-07-21T02:32:04;11.47;;;2.30;;
32746;SDS011;19118;50.860;13.662;2022-07-21T02:37:05;8.30;;;2.72;;
32746;SDS011;19118;50.860;13.662;2022-07-21T02:42:05;25.30;;;3.30;;
32746;SDS011;19118;50.860;13.662;2022-07-21T02:47:05;7.80;;;4.63;;
32746;SDS011;19118;50.860;13.662;2022-07-21T02:52:06;19.10;;;6.17;;
32746;SDS011;19118;50.860;13.662;2022-07-21T02:57:06;20.92;;;7.20;;
32746;SDS011;19118;50.860;13.662;2022-07-21T03:02:06;25.48;;;7.55;;
32746;SDS011;19118;50.860;13.662;2022-07-21T03:07:07;20.30;;;7.83;;
32746;SDS011;19118;50.860;13.662;2022-07-21T03:12:07;20.02;;;8.52;;
32746;SDS011;19118;50.860;13.662;2022-07-21T03:17:08;34.70;;;8.47;;
32746;SDS011;19118;50.860;13.662;2022-07-21T03:22:08;15.25;;;8.38;;
32746;SDS011;19118;50.860;13.662;2022-07-21T03:27:08;26.20;;;6.97;;
32746;SDS011;19118;50.860;13.662;2022-07-21T03:32:09;31.13;;;8.10;;
32746;SDS011;19118;50.860;13.662;2022-07-21T03:37:09;26.53;;;8.90;;
32746;SDS011;19118;50.860;13.662;2022-07-21T03:42:09;32.77;;;8.10;;
32746;SDS011;19118;50.860;13.662;2022-07-21T03:47:10;27.73;;;8.03;;
32746;SDS011;19118;50.860;13.662;2022-07-21T03:52:10;23.60;;;8.57;;
32746;SDS011;19118;50.860;13.662;2022-07-21T03:57:10;24.40;;;8.50;;
32746;SDS011;19118;50.860;13.662;2022-07-21T04:02:11;28.47;;;9.33;;
32746;SDS011;19118;50.860;13.662;2022-07-21T04:07:11;22.00;;;8.57;;
32746;SDS011;19118;50.860;13.662;2022-07-21T04:12:11;37.63;;;9.47;;
32746;SDS011;19118;50.860;13.662;2022-07-21T04:17:12;30.83;;;9.60;;
32746;SDS011;19118;50.860;13.662;2022-07-21T04:22:12;25.63;;;7.57;;
32746;SDS011;19118;50.860;13.662;2022-07-21T04:27:12;16.85;;;8.35;;
32746;SDS011;19118;50.860;13.662;2022-07-21T04:32:13;22.27;;;7.70;;
32746;SDS011;19118;50.860;13.662;2022-07-21T04:37:13;25.42;;;7.82;;
32746;SDS011;19118;50.860;13.662;2022-07-21T04:42:14;16.17;;;6.95;;
32746;SDS011;19118;50.860;13.662;2022-07-21T04:47:14;14.05;;;6.20;;
32746;SDS011;19118;50.860;13.662;2022-07-21T04:52:15;23.08;;;7.35;;
32746;SDS011;19118;50.860;13.662;2022-07-21T04:57:15;12.53;;;5.63;;
32746;SDS011;19118;50.860;13.662;2022-07-21T05:02:16;12.13;;;6.05;;
32746;SDS011;19118;50.860;13.662;2022-07-21T05:07:16;11.27;;;5.00;;
32746;SDS011;19118;50.860;13.662;2022-07-21T05:12:16;15.43;;;5.60;;
32746;SDS011;19118;50.860;13.662;2022-07-21T05:17:17;7.20;;;4.93;;
32746;SDS011;19118;50.860;13.662;2022-07-21T05:22:17;9.70;;;4.83;;
32746;SDS011;19118;50.860;13.662;2022-07-21T05:27:17;14.83;;;5.07;;
32746;SDS011;19118;50.860;13.662;2022-07-21T05:32:18;8.57;;;4.93;;
32746;SDS011;19118;50.860;13.662;2022-07-21T05:37:18;19.33;;;4.93;;
32746;SDS011;19118;50.860;13.662;2022-07-21T05:42:18;10.33;;;5.27;;
32746;SDS011;19118;50.860;13.662;2022-07-21T05:47:19;9.03;;;5.30;;
32746;SDS011;19118;50.860;13.662;2022-07-21T05:52:19;6.80;;;4.90;;
32746;SDS011;19118;50.860;13.662;2022-07-21T05:57:19;19.73;;;5.63;;
32746;SDS011;19118;50.860;13.662;2022-07-21T06:02:20;10.63;;;5.60;;
32746;SDS011;19118;50.860;13.662;2022-07-21T06:07:20;6.30;;;4.97;;
32746;SDS011;19118;50.860;13.662;2022-07-21T06:12:20;8.73;;;5.70;;
32746;SDS011;19118;50.860;13.662;2022-07-21T06:17:21;11.20;;;5.23;;
32746;SDS011;19118;50.860;13.662;2022-07-21T06:22:22;17.40;;;6.55;;
32746;SDS011;19118;50.860;13.662;2022-07-21T06:27:22;12.50;;;5.63;;
32746;SDS011;19118;50.860;13.662;2022-07-21T06:32:23;16.53;;;7.23;;
32746;SDS011;19118;50.860;13.662;2022-07-21T06:37:23;8.03;;;5.60;;
32746;SDS011;19118;50.860;13.662;2022-07-21T06:42:23;12.90;;;6.23;;
32746;SDS011;19118;50.860;13.662;2022-07-21T06:47:25;9.00;;;5.00;;
32746;SDS011;19118;50.860;13.662;2022-07-21T06:52:25;9.80;;;5.37;;
32746;SDS011;19118;50.860;13.662;2022-07-21T06:57:25;11.20;;;5.90;;
32746;SDS011;19118;50.860;13.662;2022-07-21T07:02:26;14.73;;;5.85;;
32746;SDS011;19118;50.860;13.662;2022-07-21T07:07:26;18.63;;;6.15;;
32746;SDS011;19118;50.860;13.662;2022-07-21T07:12:26;19.20;;;5.83;;
32746;SDS011;19118;50.860;13.662;2022-07-21T07:17:27;9.13;;;5.20;;
32746;SDS011;19118;50.860;13.662;2022-07-21T07:22:27;12.70;;;5.60;;
32746;SDS011;19118;50.860;13.662;2022-07-21T07:27:28;9.00;;;5.07;;
32746;SDS011;19118;50.860;13.662;2022-07-21T07:32:28;9.27;;;5.55;;
32746;SDS011;19118;50.860;13.662;2022-07-21T07:37:28;9.77;;;5.53;;
32746;SDS011;19118;50.860;13.662;2022-07-21T07:42:29;10.20;;;6.23;;
32746;SDS011;19118;50.860;13.662;2022-07-21T07:47:29;11.75;;;5.47;;
32746;SDS011;19118;50.860;13.662;2022-07-21T07:52:30;8.75;;;5.47;;
32746;SDS011;19118;50.860;13.662;2022-07-21T07:57:30;10.57;;;6.40;;
32746;SDS011;19118;50.860;13.662;2022-07-21T08:02:30;15.23;;;6.30;;
32746;SDS011;19118;50.860;13.662;2022-07-21T08:07:31;17.47;;;6.77;;
32746;SDS011;19118;50.860;13.662;2022-07-21T08:12:31;12.70;;;5.05;;
32746;SDS011;19118;50.860;13.662;2022-07-21T08:17:32;12.10;;;5.80;;
32746;SDS011;19118;50.860;13.662;2022-07-21T08:22:32;15.07;;;5.93;;
32746;SDS011;19118;50.860;13.662;2022-07-21T08:27:33;9.63;;;5.63;;
32746;SDS011;19118;50.860;13.662;2022-07-21T08:32:33;10.98;;;5.50;;
32746;SDS011;19118;50.860;13.662;2022-07-21T08:37:34;10.65;;;5.50;;
32746;SDS011;19118;50.860;13.662;2022-07-21T08:42:36;10.27;;;5.85;;
32746;SDS011;19118;50.860;13.662;2022-07-21T08:47:37;10.63;;;5.45;;
32746;SDS011;19118;50.860;13.662;2022-07-21T08:52:38;17.77;;;5.28;;
32746;SDS011;19118;50.860;13.662;2022-07-21T08:57:39;9.82;;;6.00;;
32746;SDS011;19118;50.860;13.662;2022-07-21T09:02:39;10.43;;;6.00;;
32746;SDS011;19118;50.860;13.662;2022-07-21T09:07:50;5.65;;;4.43;;
32746;SDS011;19118;50.860;13.662;2022-07-21T09:12:55;11.27;;;5.93;;
32746;SDS011;19118;50.860;13.662;2022-07-21T09:18:05;22.42;;;6.80;;
32746;SDS011;19118;50.860;13.662;2022-07-21T09:23:09;17.23;;;6.25;;
32746;SDS011;19118;50.860;13.662;2022-07-21T09:33:26;10.45;;;5.63;;
32746;SDS011;19118;50.860;13.662;2022-07-21T09:38:33;16.77;;;5.70;;
32746;SDS011;19118;50.860;13.662;2022-07-21T09:43:39;21.23;;;6.53;;
32746;SDS011;19118;50.860;13.662;2022-07-21T09:48:44;11.73;;;6.03;;
32746;SDS011;19118;50.860;13.662;2022-07-21T09:53:47;13.15;;;6.07;;
32746;SDS011;19118;50.860;13.662;2022-07-21T09:59:01;4.55;;;4.05;;
32746;SDS011;19118;50.860;13.662;2022-07-21T10:04:04;8.60;;;3.85;;
32746;SDS011;19118;50.860;13.662;2022-07-21T10:09:08;6.00;;;3.72;;
32746;SDS011;19118;50.860;13.662;2022-07-21T10:14:12;5.80;;;3.88;;
32746;SDS011;19118;50.860;13.662;2022-07-21T10:19:14;4.55;;;3.83;;
32746;SDS011;19118;50.860;13.662;2022-07-21T10:24:21;12.63;;;4.20;;
32746;SDS011;19118;50.860;13.662;2022-07-21T10:34:48;6.75;;;3.58;;
32746;SDS011;19118;50.860;13.662;2022-07-21T10:39:49;3.75;;;2.88;;
32746;SDS011;19118;50.860;13.662;2022-07-21T10:44:49;4.23;;;3.30;;
32746;SDS011;19118;50.860;13.662;2022-07-21T10:49:52;8.27;;;3.57;;
32746;SDS011;19118;50.860;13.662;2022-07-21T11:00:25;11.15;;;3.22;;
32746;SDS011;19118;50.860;13.662;2022-07-21T11:05:29;4.72;;;2.92;;
32746;SDS011;19118;50.860;13.662;2022-07-21T11:10:31;7.53;;;2.75;;
32746;SDS011;19118;50.860;13.662;2022-07-21T11:21:14;5.43;;;3.13;;
32746;SDS011;19118;50.860;13.662;2022-07-21T11:26:17;10.52;;;3.38;;
32746;SDS011;19118;50.860;13.662;2022-07-21T11:31:23;8.85;;;3.30;;
32746;SDS011;19118;50.860;13.662;2022-07-21T11:36:28;8.70;;;3.92;;
32746;SDS011;19118;50.860;13.662;2022-07-21T11:41:32;9.23;;;4.13;;
32746;SDS011;19118;50.860;13.662;2022-07-21T11:46:46;17.02;;;4.07;;
32746;SDS011;19118;50.860;13.662;2022-07-21T11:51:52;12.10;;;4.50;;
32746;SDS011;19118;50.860;13.662;2022-07-21T11:57:05;10.65;;;4.78;;
32746;SDS011;19118;50.860;13.662;2022-07-21T12:02:08;9.00;;;4.78;;
32746;SDS011;19118;50.860;13.662;2022-07-21T12:07:18;12.65;;;4.40;;
32746;SDS011;19118;50.860;13.662;2022-07-21T12:12:28;8.02;;;4.10;;
32746;SDS011;19118;50.860;13.662;2022-07-21T12:17:37;11.25;;;4.80;;
32746;SDS011;19118;50.860;13.662;2022-07-21T12:22:40;6.28;;;4.78;;
32746;SDS011;19118;50.860;13.662;2022-07-21T12:27:47;10.40;;;4.90;;
32746;SDS011;19118;50.860;13.662;2022-07-21T12:32:49;8.23;;;4.57;;
32746;SDS011;19118;50.860;13.662;2022-07-21T12:37:54;7.07;;;4.10;;
32746;SDS011;19118;50.860;13.662;2022-07-21T12:43:08;10.25;;;4.55;;
32746;SDS011;19118;50.860;13.662;2022-07-21T12:48:12;10.05;;;4.40;;
32746;SDS011;19118;50.860;13.662;2022-07-21T12:53:14;5.35;;;3.80;;
32746;SDS011;19118;50.860;13.662;2022-07-21T12:58:14;5.97;;;4.83;;
32746;SDS011;19118;50.860;13.662;2022-07-21T13:03:14;8.70;;;4.30;;
32746;SDS011;19118;50.860;13.662;2022-07-21T13:08:15;15.27;;;4.38;;
32746;SDS011;19118;50.860;13.662;2022-07-21T13:13:15;12.27;;;4.53;;
32746;SDS011;19118;50.860;13.662;2022-07-21T13:18:16;9.60;;;4.68;;
32746;SDS011;19118;50.860;13.662;2022-07-21T13:23:16;6.73;;;4.20;;
32746;SDS011;19118;50.860;13.662;2022-07-21T13:28:17;9.45;;;4.32;;
32746;SDS011;19118;50.860;13.662;2022-07-21T13:33:17;8.77;;;4.80;;
32746;SDS011;19118;50.860;13.662;2022-07-21T13:38:18;5.03;;;4.20;;
32746;SDS011;19118;50.860;13.662;2022-07-21T13:43:18;16.53;;;4.70;;
32746;SDS011;19118;50.860;13.662;2022-07-21T13:48:19;5.38;;;4.47;;
32746;SDS011;19118;50.860;13.662;2022-07-21T13:53:19;5.45;;;3.83;;
32746;SDS011;19118;50.860;13.662;2022-07-21T13:58:19;7.82;;;4.43;;
32746;SDS011;19118;50.860;13.662;2022-07-21T14:03:20;7.03;;;4.18;;
32746;SDS011;19118;50.860;13.662;2022-07-21T14:08:20;6.40;;;4.20;;
32746;SDS011;19118;50.860;13.662;2022-07-21T14:13:20;6.30;;;4.87;;
32746;SDS011;19118;50.860;13.662;2022-07-21T14:18:21;6.67;;;4.63;;
32746;SDS011;19118;50.860;13.662;2022-07-21T14:23:21;8.83;;;5.20;;
32746;SDS011;19118;50.860;13.662;2022-07-21T14:28:22;10.43;;;5.70;;
32746;SDS011;19118;50.860;13.662;2022-07-21T14:33:22;10.57;;;5.90;;
32746;SDS011;19118;50.860;13.662;2022-07-21T14:38:23;11.43;;;5.63;;
32746;SDS011;19118;50.860;13.662;2022-07-21T14:43:24;12.43;;;6.10;;
32746;SDS011;19118;50.860;13.662;2022-07-21T14:48:24;8.50;;;5.83;;
32746;SDS011;19118;50.860;13.662;2022-07-21T14:53:24;9.50;;;6.75;;
32746;SDS011;19118;50.860;13.662;2022-07-21T14:58:25;8.83;;;6.07;;
32746;SDS011;19118;50.860;13.662;2022-07-21T15:03:25;11.00;;;6.70;;
32746;SDS011;19118;50.860;13.662;2022-07-21T15:08:25;9.55;;;6.88;;
32746;SDS011;19118;50.860;13.662;2022-07-21T15:13:26;8.25;;;6.00;;
32746;SDS011;19118;50.860;13.662;2022-07-21T15:18:28;11.18;;;6.28;;
32746;SDS011;19118;50.860;13.662;2022-07-21T15:23:29;11.47;;;5.83;;
32746;SDS011;19118;50.860;13.662;2022-07-21T15:28:29;14.10;;;6.80;;
32746;SDS011;19118;50.860;13.662;2022-07-21T15:33:29;9.90;;;6.23;;
32746;SDS011;19118;50.860;13.662;2022-07-21T15:38:30;14.03;;;6.07;;
32746;SDS011;19118;50.860;13.662;2022-07-21T15:43:30;17.57;;;6.43;;
32746;SDS011;19118;50.860;13.662;2022-07-21T15:48:30;18.73;;;6.73;;
32746;SDS011;19118;50.860;13.662;2022-07-21T15:53:31;15.97;;;6.70;;
32746;SDS011;19118;50.860;13.662;2022-07-21T15:58:31;13.38;;;6.53;;
32746;SDS011;19118;50.860;13.662;2022-07-21T16:03:32;14.32;;;6.55;;
32746;SDS011;19118;50.860;13.662;2022-07-21T16:08:32;8.87;;;6.63;;
32746;SDS011;19118;50.860;13.662;2022-07-21T16:13:32;9.53;;;5.93;;
32746;SDS011;19118;50.860;13.662;2022-07-21T16:18:33;8.35;;;5.38;;
32746;SDS011;19118;50.860;13.662;2022-07-21T16:23:33;9.83;;;5.33;;
32746;SDS011;19118;50.860;13.662;2022-07-21T16:28:34;6.07;;;4.57;;
32746;SDS011;19118;50.860;13.662;2022-07-21T16:33:34;8.40;;;5.23;;
32746;SDS011;19118;50.860;13.662;2022-07-21T16:38:34;9.10;;;4.90;;
32746;SDS011;19118;50.860;13.662;2022-07-21T16:43:35;13.53;;;6.17;;
32746;SDS011;19118;50.860;13.662;2022-07-21T16:48:35;7.00;;;4.63;;
32746;SDS011;19118;50.860;13.662;2022-07-21T16:53:35;8.43;;;4.40;;
32746;SDS011;19118;50.860;13.662;2022-07-21T16:58:36;9.32;;;5.22;;
32746;SDS011;19118;50.860;13.662;2022-07-21T17:03:37;9.23;;;5.20;;
32746;SDS011;19118;50.860;13.662;2022-07-21T17:08:37;10.48;;;5.25;;
32746;SDS011;19118;50.860;13.662;2022-07-21T17:13:38;9.27;;;5.50;;
32746;SDS011;19118;50.860;13.662;2022-07-21T17:18:39;8.77;;;5.47;;
32746;SDS011;19118;50.860;13.662;2022-07-21T17:23:39;9.30;;;5.27;;
32746;SDS011;19118;50.860;13.662;2022-07-21T17:28:40;9.15;;;4.50;;
32746;SDS011;19118;50.860;13.662;2022-07-21T17:33:40;6.57;;;5.10;;
32746;SDS011;19118;50.860;13.662;2022-07-21T17:38:40;6.47;;;4.87;;
32746;SDS011;19118;50.860;13.662;2022-07-21T17:43:41;7.85;;;5.35;;
32746;SDS011;19118;50.860;13.662;2022-07-21T17:48:41;7.23;;;5.17;;
32746;SDS011;19118;50.860;13.662;2022-07-21T17:53:42;7.75;;;5.75;;
32746;SDS011;19118;50.860;13.662;2022-07-21T17:58:42;6.87;;;5.60;;
32746;SDS011;19118;50.860;13.662;2022-07-21T18:03:45;13.43;;;6.25;;
32746;SDS011;19118;50.860;13.662;2022-07-21T18:08:46;8.63;;;5.82;;
32746;SDS011;19118;50.860;13.662;2022-07-21T18:13:47;9.50;;;5.25;;
32746;SDS011;19118;50.860;13.662;2022-07-21T18:18:47;9.50;;;6.28;;
32746;SDS011;19118;50.860;13.662;2022-07-21T18:23:47;10.83;;;6.13;;
32746;SDS011;19118;50.860;13.662;2022-07-21T18:28:48;10.57;;;5.73;;
32746;SDS011;19118;50.860;13.662;2022-07-21T18:33:48;8.40;;;5.95;;
32746;SDS011;19118;50.860;13.662;2022-07-21T18:38:49;9.77;;;6.30;;
32746;SDS011;19118;50.860;13.662;2022-07-21T18:43:49;8.10;;;5.97;;
32746;SDS011;19118;50.860;13.662;2022-07-21T18:48:49;9.33;;;6.53;;
32746;SDS011;19118;50.860;13.662;2022-07-21T18:53:50;10.67;;;6.63;;
32746;SDS011;19118;50.860;13.662;2022-07-21T18:58:50;10.17;;;6.93;;
32746;SDS011;19118;50.860;13.662;2022-07-21T19:03:51;12.75;;;8.30;;
32746;SDS011;19118;50.860;13.662;2022-07-21T19:08:51;8.83;;;6.63;;
32746;SDS011;19118;50.860;13.662;2022-07-21T19:13:52;10.82;;;7.15;;
32746;SDS011;19118;50.860;13.662;2022-07-21T19:18:53;10.65;;;7.25;;
32746;SDS011;19118;50.860;13.662;2022-07-21T19:23:53;14.07;;;7.67;;
32746;SDS011;19118;50.860;13.662;2022-07-21T19:28:54;17.40;;;7.68;;
32746;SDS011;19118;50.860;13.662;2022-07-21T19:33:57;9.52;;;6.97;;
32746;SDS011;19118;50.860;13.662;2022-07-21T19:38:57;16.67;;;7.30;;
32746;SDS011;19118;50.860;13.662;2022-07-21T19:43:58;14.67;;;8.73;;
32746;SDS011;19118;50.860;13.662;2022-07-21T19:48:58;9.37;;;7.00;;
32746;SDS011;19118;50.860;13.662;2022-07-21T19:53:58;11.97;;;6.83;;
32746;SDS011;19118;50.860;13.662;2022-07-21T19:58:59;9.85;;;7.85;;
32746;SDS011;19118;50.860;13.662;2022-07-21T20:04:01;16.48;;;8.50;;
32746;SDS011;19118;50.860;13.662;2022-07-21T20:09:02;14.88;;;9.32;;
32746;SDS011;19118;50.860;13.662;2022-07-21T20:14:03;11.65;;;8.20;;
32746;SDS011;19118;50.860;13.662;2022-07-21T20:19:04;15.13;;;8.80;;
32746;SDS011;19118;50.860;13.662;2022-07-21T20:24:05;11.80;;;8.50;;
32746;SDS011;19118;50.860;13.662;2022-07-21T20:29:05;17.13;;;9.60;;
32746;SDS011;19118;50.860;13.662;2022-07-21T20:34:06;13.67;;;8.90;;
32746;SDS011;19118;50.860;13.662;2022-07-21T20:39:07;14.30;;;8.82;;
32746;SDS011;19118;50.860;13.662;2022-07-21T20:44:07;11.75;;;8.85;;
32746;SDS011;19118;50.860;13.662;2022-07-21T20:49:08;14.17;;;8.43;;
32746;SDS011;19118;50.860;13.662;2022-07-21T20:54:08;11.63;;;9.40;;
32746;SDS011;19118;50.860;13.662;2022-07-21T20:59:09;15.52;;;9.95;;
32746;SDS011;19118;50.860;13.662;2022-07-21T21:04:09;15.90;;;9.50;;
32746;SDS011;19118;50.860;13.662;2022-07-21T21:09:12;15.40;;;9.48;;
32746;SDS011;19118;50.860;13.662;2022-07-21T21:14:12;11.63;;;8.82;;
32746;SDS011;19118;50.860;13.662;2022-07-21T21:19:13;13.17;;;9.83;;
32746;SDS011;19118;50.860;13.662;2022-07-21T21:24:13;15.55;;;9.13;;
32746;SDS011;19118;50.860;13.662;2022-07-21T21:29:15;13.20;;;9.35;;
32746;SDS011;19118;50.860;13.662;2022-07-21T21:34:15;12.70;;;9.07;;
32746;SDS011;19118;50.860;13.662;2022-07-21T21:39:16;13.40;;;9.65;;
32746;SDS011;19118;50.860;13.662;2022-07-21T21:44:16;13.30;;;9.13;;
32746;SDS011;19118;50.860;13.662;2022-07-21T21:49:17;14.77;;;8.20;;
32746;SDS011;19118;50.860;13.662;2022-07-21T21:54:17;12.35;;;9.27;;
32746;SDS011;19118;50.860;13.662;2022-07-21T21:59:19;10.80;;;8.65;;
32746;SDS011;19118;50.860;13.662;2022-07-21T22:04:19;17.35;;;9.70;;
32746;SDS011;19118;50.860;13.662;2022-07-21T22:09:20;14.68;;;9.32;;
32746;SDS011;19118;50.860;13.662;2022-07-21T22:14:21;11.63;;;9.02;;
32746;SDS011;19118;50.860;13.662;2022-07-21T22:19:21;15.60;;;9.57;;
32746;SDS011;19118;50.860;13.662;2022-07-21T22:24:22;14.65;;;8.65;;
32746;SDS011;19118;50.860;13.662;2022-07-21T22:29:22;11.98;;;8.98;;
32746;SDS011;19118;50.860;13.662;2022-07-21T22:34:23;12.83;;;8.63;;
32746;SDS011;19118;50.860;13.662;2022-07-21T22:39:23;16.67;;;8.40;;
32746;SDS011;19118;50.860;13.662;2022-07-21T22:44:23;9.77;;;7.43;;
32746;SDS011;19118;50.860;13.662;2022-07-21T22:49:24;16.60;;;7.83;;
32746;SDS011;19118;50.860;13.662;2022-07-21T22:54:25;11.93;;;8.60;;
32746;SDS011;19118;50.860;13.662;2022-07-21T22:59:26;11.85;;;8.02;;
32746;SDS011;19118;50.860;13.662;2022-07-21T23:04:27;14.80;;;7.85;;
32746;SDS011;19118;50.860;13.662;2022-07-21T23:09:27;9.95;;;6.97;;
32746;SDS011;19118;50.860;13.662;2022-07-21T23:14:28;10.85;;;8.52;;
32746;SDS011;19118;50.860;13.662;2022-07-21T23:19:28;12.73;;;9.03;;
32746;SDS011;19118;50.860;13.662;2022-07-21T23:24:29;16.67;;;9.00;;
32746;SDS011;19118;50.860;13.662;2022-07-21T23:29:29;17.80;;;9.25;;
32746;SDS011;19118;50.860;13.662;2022-07-21T23:34:29;11.13;;;8.15;;
32746;SDS011;19118;50.860;13.662;2022-07-21T23:39:30;11.90;;;8.23;;
32746;SDS011;19118;50.860;13.662;2022-07-21T23:44:30;11.37;;;7.87;;
32746;SDS011;19118;50.860;13.662;2022-07-21T23:49:30;11.13;;;8.67;;
32746;SDS011;19118;50.860;13.662;2022-07-21T23:54:31;12.57;;;7.85;;
32746;SDS011;19118;50.860;13.662;2022-07-21T23:59:31;11.73;;;7.30;;
